sensor_id;sensor_type;location;lat;lon;timestamp;P1;durP1;ratioP1;P2;durP2;ratioP2
45734;SDS011;31446;49.632;8.328;2023-11-19T00:10:03;6.18;;;3.83;;
45734;SDS011;31446;49.632;8.328;2023-11-19T00:25:12;8.65;;;3.88;;
45734;SDS011;31446;49.632;8.328;2023-11-19T00:40:18;3.90;;;3.17;;
45734;SDS011;31446;49.632;8.328;2023-11-19T00:55:25;8.80;;;2.67;;
45734;SDS011;31446;49.632;8.328;2023-11-19T01:10:32;3.40;;;2.08;;
45734;SDS011;31446;49.632;8.328;2023-11-19T01:25:38;4.10;;;1.75;;
45734;SDS011;31446;49.632;8.328;2023-11-19T01:40:44;2.15;;;1.80;;
45734;SDS011;31446;49.632;8.328;2023-11-19T01:55:50;5.05;;;1.42;;
45734;SDS011;31446;49.632;8.328;2023-11-19T02:10:58;4.78;;;1.30;;
45734;SDS011;31446;49.632;8.328;2023-11-19T02:26:05;0.65;;;0.60;;
45734;SDS011;31446;49.632;8.328;2023-11-19T02:41:19;0.20;;;0.20;;
45734;SDS011;31446;49.632;8.328;2023-11-19T02:56:25;0.47;;;0.30;;
45734;SDS011;31446;49.632;8.328;2023-11-19T03:11:37;0.50;;;0.50;;
45734;SDS011;31446;49.632;8.328;2023-11-19T03:26:47;0.88;;;0.57;;
45734;SDS011;31446;49.632;8.328;2023-11-19T03:41:53;0.95;;;0.50;;
45734;SDS011;31446;49.632;8.328;2023-11-19T03:56:59;0.20;;;0.20;;
45734;SDS011;31446;49.632;8.328;2023-11-19T04:12:07;0.70;;;0.52;;
45734;SDS011;31446;49.632;8.328;2023-11-19T04:27:13;0.47;;;0.30;;
45734;SDS011;31446;49.632;8.328;2023-11-19T04:42:20;2.08;;;0.20;;
45734;SDS011;31446;49.632;8.328;2023-11-19T04:57:27;0.60;;;0.60;;
45734;SDS011;31446;49.632;8.328;2023-11-19T05:12:35;3.75;;;0.70;;
45734;SDS011;31446;49.632;8.328;2023-11-19T05:27:41;0.70;;;0.60;;
45734;SDS011;31446;49.632;8.328;2023-11-19T05:42:48;1.70;;;1.05;;
45734;SDS011;31446;49.632;8.328;2023-11-19T05:57:54;0.70;;;0.70;;
45734;SDS011;31446;49.632;8.328;2023-11-19T06:13:00;4.28;;;0.90;;
45734;SDS011;31446;49.632;8.328;2023-11-19T06:28:07;3.30;;;0.88;;
45734;SDS011;31446;49.632;8.328;2023-11-19T06:43:16;3.05;;;1.00;;
45734;SDS011;31446;49.632;8.328;2023-11-19T06:58:23;0.77;;;0.77;;
45734;SDS011;31446;49.632;8.328;2023-11-19T07:13:29;1.15;;;1.00;;
45734;SDS011;31446;49.632;8.328;2023-11-19T07:28:35;1.85;;;0.90;;
45734;SDS011;31446;49.632;8.328;2023-11-19T07:43:42;14.10;;;6.15;;
45734;SDS011;31446;49.632;8.328;2023-11-19T07:58:49;3.28;;;1.10;;
45734;SDS011;31446;49.632;8.328;2023-11-19T08:13:55;3.75;;;1.45;;
45734;SDS011;31446;49.632;8.328;2023-11-19T08:29:01;2.13;;;0.70;;
45734;SDS011;31446;49.632;8.328;2023-11-19T08:44:08;1.40;;;0.68;;
45734;SDS011;31446;49.632;8.328;2023-11-19T08:59:14;1.45;;;1.02;;
45734;SDS011;31446;49.632;8.328;2023-11-19T09:14:21;1.92;;;1.35;;
45734;SDS011;31446;49.632;8.328;2023-11-19T09:29:28;10.50;;;2.67;;
45734;SDS011;31446;49.632;8.328;2023-11-19T09:44:38;8.57;;;1.65;;
45734;SDS011;31446;49.632;8.328;2023-11-19T09:59:48;4.88;;;1.50;;
45734;SDS011;31446;49.632;8.328;2023-11-19T10:14:56;9.27;;;1.88;;
45734;SDS011;31446;49.632;8.328;2023-11-19T10:30:03;7.05;;;1.02;;
45734;SDS011;31446;49.632;8.328;2023-11-19T10:45:18;13.82;;;1.80;;
45734;SDS011;31446;49.632;8.328;2023-11-19T11:00:28;5.97;;;1.55;;
45734;SDS011;31446;49.632;8.328;2023-11-19T11:15:36;2.42;;;0.80;;
45734;SDS011;31446;49.632;8.328;2023-11-19T11:30:49;7.60;;;0.82;;
45734;SDS011;31446;49.632;8.328;2023-11-19T12:01:59;11.05;;;1.60;;
45734;SDS011;31446;49.632;8.328;2023-11-19T12:17:06;14.15;;;2.05;;
45734;SDS011;31446;49.632;8.328;2023-11-19T12:32:43;9.10;;;1.58;;
45734;SDS011;31446;49.632;8.328;2023-11-19T12:47:52;8.10;;;1.38;;
45734;SDS011;31446;49.632;8.328;2023-11-19T13:03:10;5.07;;;1.35;;
45734;SDS011;31446;49.632;8.328;2023-11-19T13:18:16;10.18;;;1.48;;
45734;SDS011;31446;49.632;8.328;2023-11-19T13:33:24;9.77;;;1.88;;
45734;SDS011;31446;49.632;8.328;2023-11-19T13:48:32;9.82;;;1.23;;
45734;SDS011;31446;49.632;8.328;2023-11-19T14:03:38;5.13;;;1.15;;
45734;SDS011;31446;49.632;8.328;2023-11-19T14:18:44;5.90;;;1.52;;
45734;SDS011;31446;49.632;8.328;2023-11-19T14:33:52;15.35;;;1.63;;
45734;SDS011;31446;49.632;8.328;2023-11-19T14:49:00;11.05;;;1.58;;
45734;SDS011;31446;49.632;8.328;2023-11-19T15:04:06;10.50;;;2.00;;
45734;SDS011;31446;49.632;8.328;2023-11-19T15:19:13;5.05;;;1.20;;
45734;SDS011;31446;49.632;8.328;2023-11-19T15:34:20;8.38;;;1.25;;
45734;SDS011;31446;49.632;8.328;2023-11-19T15:49:26;8.93;;;1.48;;
45734;SDS011;31446;49.632;8.328;2023-11-19T16:04:33;10.23;;;2.50;;
45734;SDS011;31446;49.632;8.328;2023-11-19T16:19:39;15.95;;;2.88;;
45734;SDS011;31446;49.632;8.328;2023-11-19T16:34:47;15.30;;;3.10;;
45734;SDS011;31446;49.632;8.328;2023-11-19T16:49:53;6.10;;;1.60;;
45734;SDS011;31446;49.632;8.328;2023-11-19T17:04:59;11.15;;;1.80;;
45734;SDS011;31446;49.632;8.328;2023-11-19T17:20:07;9.63;;;1.65;;
45734;SDS011;31446;49.632;8.328;2023-11-19T17:35:15;9.20;;;1.63;;
45734;SDS011;31446;49.632;8.328;2023-11-19T17:50:22;9.02;;;1.95;;
45734;SDS011;31446;49.632;8.328;2023-11-19T18:05:28;15.82;;;2.83;;
45734;SDS011;31446;49.632;8.328;2023-11-19T18:20:34;12.48;;;4.43;;
45734;SDS011;31446;49.632;8.328;2023-11-19T18:35:40;12.88;;;3.10;;
45734;SDS011;31446;49.632;8.328;2023-11-19T18:50:47;18.30;;;3.20;;
45734;SDS011;31446;49.632;8.328;2023-11-19T19:05:54;12.57;;;2.70;;
45734;SDS011;31446;49.632;8.328;2023-11-19T19:21:01;15.70;;;3.05;;
45734;SDS011;31446;49.632;8.328;2023-11-19T19:36:08;18.85;;;3.00;;
45734;SDS011;31446;49.632;8.328;2023-11-19T19:51:15;13.40;;;2.10;;
45734;SDS011;31446;49.632;8.328;2023-11-19T20:06:23;17.02;;;2.75;;
45734;SDS011;31446;49.632;8.328;2023-11-19T20:21:29;20.13;;;4.05;;
45734;SDS011;31446;49.632;8.328;2023-11-19T20:36:35;16.10;;;2.70;;
45734;SDS011;31446;49.632;8.328;2023-11-19T20:51:41;13.63;;;2.47;;
45734;SDS011;31446;49.632;8.328;2023-11-19T21:06:47;21.58;;;3.00;;
45734;SDS011;31446;49.632;8.328;2023-11-19T21:21:54;20.02;;;4.05;;
45734;SDS011;31446;49.632;8.328;2023-11-19T21:37:00;21.42;;;2.75;;
45734;SDS011;31446;49.632;8.328;2023-11-19T21:52:06;17.17;;;2.85;;
45734;SDS011;31446;49.632;8.328;2023-11-19T22:07:13;23.58;;;2.92;;
45734;SDS011;31446;49.632;8.328;2023-11-19T22:22:19;28.05;;;2.97;;
45734;SDS011;31446;49.632;8.328;2023-11-19T22:37:25;19.25;;;2.85;;
45734;SDS011;31446;49.632;8.328;2023-11-19T22:52:31;27.92;;;3.10;;
45734;SDS011;31446;49.632;8.328;2023-11-19T23:07:37;16.13;;;2.58;;
45734;SDS011;31446;49.632;8.328;2023-11-19T23:22:43;21.42;;;3.03;;
45734;SDS011;31446;49.632;8.328;2023-11-19T23:37:50;26.65;;;3.40;;
45734;SDS011;31446;49.632;8.328;2023-11-19T23:52:56;21.13;;;2.75;;
